Time;durP1;ratioP1;P1;durP2;ratioP2;P2;SDS_P1;SDS_P2;PMS_P1;PMS_P2;Temp;Humidity;BMP_temperature;BMP_pressure;BME280_temperature;BME280_humidity;BME280_pressure;Samples;Min_cycle;Max_cycle;Signal;HPM_P1;HPM_P2
2023/04/18 00:00:35;;;;;;;17.53;10.67;;;;;;;;;;5048906;28;20029;-78
2023/04/18 00:03:01;;;;;;;18.77;11.20;;;;;;;;;;5032019;28;20017;-78
2023/04/18 00:05:30;;;;;;;17.40;10.80;;;;;;;;;;5052619;28;20026;-80
2023/04/18 00:07:56;;;;;;;16.20;10.83;;;;;;;;;;5026196;28;20067;-79
2023/04/18 00:10:22;;;;;;;16.63;10.47;;;;;;;;;;5051331;28;20064;-78
2023/04/18 00:12:48;;;;;;;19.87;11.40;;;;;;;;;;5052998;28;20026;-77
2023/04/18 00:15:17;;;;;;;18.57;10.43;;;;;;;;;;5033875;28;20025;-78
2023/04/18 00:17:43;;;;;;;16.17;10.87;;;;;;;;;;5053407;28;20045;-80
2023/04/18 00:20:12;;;;;;;14.20;10.23;;;;;;;;;;5052084;28;20468;-78
2023/04/18 00:22:43;;;;;;;19.37;10.30;;;;;;;;;;5031305;28;20021;-84
2023/04/18 00:25:10;;;;;;;15.73;10.10;;;;;;;;;;5045996;28;20092;-80
2023/04/18 00:27:36;;;;;;;14.73;10.17;;;;;;;;;;5044437;28;20097;-79
2023/04/18 00:30:02;;;;;;;15.43;9.73;;;;;;;;;;5047787;28;20048;-79
2023/04/18 00:32:31;;;;;;;19.10;10.53;;;;;;;;;;5045751;28;20024;-78
2023/04/18 00:34:57;;;;;;;20.37;10.33;;;;;;;;;;5051732;28;20044;-78
2023/04/18 00:37:23;;;;;;;15.53;9.73;;;;;;;;;;5027590;28;20045;-80
2023/04/18 00:39:54;;;;;;;15.70;9.50;;;;;;;;;;5052120;28;20033;-80
2023/04/18 00:42:28;;;;;;;21.47;9.23;;;;;;;;;;5029592;28;20085;-78
2023/04/18 00:44:54;;;;;;;12.07;8.87;;;;;;;;;;5052565;28;20061;-78
2023/04/18 00:47:20;;;;;;;15.30;9.23;;;;;;;;;;5029951;28;20040;-79
2023/04/18 00:49:47;;;;;;;17.20;9.53;;;;;;;;;;5045561;28;20088;-79
2023/04/18 00:52:14;;;;;;;17.17;9.90;;;;;;;;;;5044246;28;20122;-79
2023/04/18 00:54:43;;;;;;;13.00;9.20;;;;;;;;;;5052729;28;20017;-80
2023/04/18 00:57:09;;;;;;;12.00;9.13;;;;;;;;;;5052605;28;20053;-80
2023/04/18 00:59:35;;;;;;;16.90;9.87;;;;;;;;;;5036566;28;20025;-78
2023/04/18 01:02:02;;;;;;;16.80;8.80;;;;;;;;;;5045198;28;20029;-80
2023/04/18 01:04:28;;;;;;;16.33;9.27;;;;;;;;;;5051707;28;20025;-78
2023/04/18 01:07:07;;;;;;;18.53;9.80;;;;;;;;;;5051963;28;20026;-80
2023/04/18 01:09:36;;;;;;;13.13;9.03;;;;;;;;;;5051141;28;20560;-78
2023/04/18 01:12:04;;;;;;;18.10;9.50;;;;;;;;;;5043876;28;20036;-79
2023/04/18 01:14:30;;;;;;;14.03;8.70;;;;;;;;;;5053102;23;20025;-77
2023/04/18 01:16:57;;;;;;;16.20;10.13;;;;;;;;;;5052362;28;20059;-78
2023/04/18 01:19:23;;;;;;;17.20;9.77;;;;;;;;;;5047465;28;20020;-79
2023/04/18 01:21:52;;;;;;;16.50;9.77;;;;;;;;;;5051356;28;21189;-78
2023/04/18 01:24:18;;;;;;;17.03;11.00;;;;;;;;;;5070350;28;20029;-79
2023/04/18 01:26:48;;;;;;;19.87;9.20;;;;;;;;;;5052183;28;20067;-78
2023/04/18 01:29:14;;;;;;;17.67;9.03;;;;;;;;;;5049757;28;20053;-79
2023/04/18 01:31:40;;;;;;;14.03;9.07;;;;;;;;;;5070287;28;20183;-80
2023/04/18 01:34:10;;;;;;;16.20;9.47;;;;;;;;;;5069344;28;20032;-80
2023/04/18 01:36:38;;;;;;;18.17;9.60;;;;;;;;;;5051002;28;20021;-78
2023/04/18 01:39:05;;;;;;;17.83;10.43;;;;;;;;;;5070168;28;20032;-78
2023/04/18 01:41:31;;;;;;;20.00;9.10;;;;;;;;;;5070872;28;20086;-79
2023/04/18 01:43:58;;;;;;;14.43;9.03;;;;;;;;;;5071106;28;20101;-78
2023/04/18 01:46:24;;;;;;;17.07;9.93;;;;;;;;;;5070185;28;20064;-79
2023/04/18 01:48:50;;;;;;;14.87;9.77;;;;;;;;;;5070674;28;20024;-79
2023/04/18 01:51:16;;;;;;;17.33;10.47;;;;;;;;;;5048935;28;20053;-79
2023/04/18 01:53:42;;;;;;;14.93;9.93;;;;;;;;;;5069928;28;20027;-78
2023/04/18 01:56:09;;;;;;;19.17;9.43;;;;;;;;;;5048980;28;20048;-78
2023/04/18 01:58:35;;;;;;;17.70;10.80;;;;;;;;;;5048879;28;20029;-79
2023/04/18 02:01:05;;;;;;;18.30;9.83;;;;;;;;;;5055269;28;20063;-79
2023/04/18 02:03:31;;;;;;;17.57;10.70;;;;;;;;;;5070141;28;20029;-78
2023/04/18 02:05:57;;;;;;;17.57;10.30;;;;;;;;;;5048313;28;20021;-81
2023/04/18 02:08:23;;;;;;;16.00;9.53;;;;;;;;;;5045837;28;20024;-79
2023/04/18 02:10:49;;;;;;;17.37;9.43;;;;;;;;;;5049641;28;20021;-79
2023/04/18 02:13:15;;;;;;;14.40;10.17;;;;;;;;;;5052233;28;20025;-80
2023/04/18 02:15:43;;;;;;;18.47;11.43;;;;;;;;;;5049192;28;20041;-79
2023/04/18 02:18:10;;;;;;;16.00;10.77;;;;;;;;;;5051400;28;20033;-79
2023/04/18 02:20:38;;;;;;;17.03;10.80;;;;;;;;;;5047355;28;20032;-79
2023/04/18 02:23:04;;;;;;;18.57;10.90;;;;;;;;;;5069081;28;20029;-77
2023/04/18 02:25:30;;;;;;;24.47;11.10;;;;;;;;;;5068180;28;20036;-80
2023/04/18 02:27:59;;;;;;;15.17;10.60;;;;;;;;;;5068373;28;20037;-78
2023/04/18 02:30:25;;;;;;;20.00;10.60;;;;;;;;;;5047029;28;20021;-79
2023/04/18 02:32:56;;;;;;;16.17;9.77;;;;;;;;;;5067660;28;20089;-79
2023/04/18 02:35:22;;;;;;;14.90;9.83;;;;;;;;;;5067835;28;20024;-79
2023/04/18 02:37:51;;;;;;;19.27;10.87;;;;;;;;;;5048494;28;20020;-79
2023/04/18 02:40:18;;;;;;;18.37;10.73;;;;;;;;;;5046557;28;20041;-79
2023/04/18 02:42:44;;;;;;;16.70;10.40;;;;;;;;;;5044988;28;20041;-79
2023/04/18 02:45:10;;;;;;;16.17;10.77;;;;;;;;;;5045043;28;20013;-79
2023/04/18 02:47:40;;;;;;;16.57;10.73;;;;;;;;;;5050089;28;20032;-78
2023/04/18 02:50:06;;;;;;;20.03;11.67;;;;;;;;;;5067473;28;20012;-82
2023/04/18 02:52:32;;;;;;;16.77;11.00;;;;;;;;;;5050492;28;20021;-78
2023/04/18 02:54:59;;;;;;;17.63;11.10;;;;;;;;;;5066500;28;20224;-79
2023/04/18 02:57:25;;;;;;;22.07;11.50;;;;;;;;;;5045581;28;20053;-79
2023/04/18 02:59:51;;;;;;;16.77;11.80;;;;;;;;;;5048853;28;20029;-79
2023/04/18 03:02:17;;;;;;;19.37;11.63;;;;;;;;;;5046642;28;21009;-80
2023/04/18 03:04:43;;;;;;;18.03;11.87;;;;;;;;;;5055195;28;20068;-81
2023/04/18 03:07:09;;;;;;;19.90;11.70;;;;;;;;;;5066291;28;20031;-80
2023/04/18 03:09:35;;;;;;;19.07;11.73;;;;;;;;;;5044891;28;20064;-78
2023/04/18 03:12:01;;;;;;;17.23;11.07;;;;;;;;;;5055767;28;20040;-79
2023/04/18 03:14:27;;;;;;;20.37;11.63;;;;;;;;;;5069693;28;20040;-79
2023/04/18 03:16:54;;;;;;;20.97;11.70;;;;;;;;;;5070327;28;20041;-81
2023/04/18 03:19:22;;;;;;;17.90;11.77;;;;;;;;;;5069376;28;20056;-81
2023/04/18 03:21:48;;;;;;;16.10;11.43;;;;;;;;;;5047515;28;20029;-80
2023/04/18 03:24:17;;;;;;;18.53;12.73;;;;;;;;;;5069197;28;20083;-79
2023/04/18 03:26:45;;;;;;;21.00;12.33;;;;;;;;;;5053352;28;20104;-81
2023/04/18 03:29:11;;;;;;;22.83;12.50;;;;;;;;;;5070496;28;20049;-80
2023/04/18 03:31:40;;;;;;;21.40;11.90;;;;;;;;;;5052865;28;20039;-81
2023/04/18 03:34:09;;;;;;;17.60;12.30;;;;;;;;;;5046536;28;20060;-84
2023/04/18 03:36:37;;;;;;;20.83;11.57;;;;;;;;;;5069224;28;20021;-79
2023/04/18 03:39:04;;;;;;;19.40;12.30;;;;;;;;;;5052318;28;20037;-80
2023/04/18 03:41:30;;;;;;;19.83;11.27;;;;;;;;;;5051717;28;20031;-80
2023/04/18 03:43:56;;;;;;;22.60;11.93;;;;;;;;;;5052180;28;20064;-82
2023/04/18 03:46:24;;;;;;;23.00;12.70;;;;;;;;;;5043714;28;20024;-79
2023/04/18 03:48:53;;;;;;;22.47;12.67;;;;;;;;;;5068692;28;20036;-78
2023/04/18 03:51:19;;;;;;;20.70;12.80;;;;;;;;;;5051258;28;20028;-79
2023/04/18 03:53:45;;;;;;;20.67;12.60;;;;;;;;;;5067623;28;20027;-79
2023/04/18 03:56:11;;;;;;;22.80;12.40;;;;;;;;;;5051491;28;20025;-79
2023/04/18 03:58:37;;;;;;;24.10;12.70;;;;;;;;;;5051059;28;21227;-79
2023/04/18 04:01:05;;;;;;;23.83;14.30;;;;;;;;;;5051265;28;20083;-79
2023/04/18 04:03:31;;;;;;;19.70;13.07;;;;;;;;;;5068146;28;20052;-81
2023/04/18 04:05:57;;;;;;;19.33;12.53;;;;;;;;;;5068678;28;20087;-81
2023/04/18 04:08:26;;;;;;;23.30;12.83;;;;;;;;;;5045911;28;20132;-78
2023/04/18 04:10:52;;;;;;;22.03;13.30;;;;;;;;;;5051382;28;20021;-79
2023/04/18 04:13:21;;;;;;;26.60;14.03;;;;;;;;;;5046492;28;20031;-80
2023/04/18 04:15:49;;;;;;;27.07;12.90;;;;;;;;;;5043178;28;20123;-78
2023/04/18 04:18:18;;;;;;;20.00;13.90;;;;;;;;;;5046521;28;20045;-78
2023/04/18 04:20:45;;;;;;;21.13;13.77;;;;;;;;;;5050827;28;20072;-78
2023/04/18 04:23:11;;;;;;;21.33;12.87;;;;;;;;;;5067122;28;20045;-78
2023/04/18 04:25:40;;;;;;;24.27;14.60;;;;;;;;;;5068342;28;20052;-79
2023/04/18 04:28:07;;;;;;;28.87;14.87;;;;;;;;;;5051022;28;20052;-79
2023/04/18 04:30:33;;;;;;;22.60;13.47;;;;;;;;;;5047418;28;21168;-79
2023/04/18 04:33:00;;;;;;;21.87;13.90;;;;;;;;;;5047573;28;20036;-79
2023/04/18 04:35:27;;;;;;;22.87;15.00;;;;;;;;;;5068133;28;20040;-79
2023/04/18 04:37:53;;;;;;;29.47;15.67;;;;;;;;;;5067412;28;20052;-81
2023/04/18 04:40:19;;;;;;;27.57;14.53;;;;;;;;;;5050846;28;20089;-79
2023/04/18 04:42:47;;;;;;;23.17;14.77;;;;;;;;;;5068915;28;20048;-79
2023/04/18 04:45:14;;;;;;;30.33;14.80;;;;;;;;;;5068022;28;20047;-77
2023/04/18 04:47:40;;;;;;;25.20;14.80;;;;;;;;;;5067053;28;20056;-80
2023/04/18 04:50:10;;;;;;;24.27;15.43;;;;;;;;;;5050591;28;20029;-78
2023/04/18 04:52:37;;;;;;;23.57;14.20;;;;;;;;;;5050434;28;20025;-79
2023/04/18 04:55:06;;;;;;;25.23;15.20;;;;;;;;;;5044746;28;20056;-79
2023/04/18 04:57:32;;;;;;;23.13;14.97;;;;;;;;;;5067367;28;20049;-77
2023/04/18 04:59:58;;;;;;;27.03;15.13;;;;;;;;;;5066650;28;20021;-81
2023/04/18 05:02:24;;;;;;;25.43;14.63;;;;;;;;;;5067758;28;20021;-79
2023/04/18 05:04:50;;;;;;;27.20;15.27;;;;;;;;;;5051381;28;20092;-79
2023/04/18 05:07:16;;;;;;;26.17;14.67;;;;;;;;;;5067711;28;20150;-78
2023/04/18 05:09:42;;;;;;;25.23;15.40;;;;;;;;;;5066973;28;20067;-78
2023/04/18 05:12:11;;;;;;;26.70;13.10;;;;;;;;;;5067583;28;20127;-80
2023/04/18 05:14:37;;;;;;;23.57;13.43;;;;;;;;;;5069026;28;20035;-78
2023/04/18 05:17:03;;;;;;;19.27;13.13;;;;;;;;;;5068606;28;20037;-78
2023/04/18 05:19:29;;;;;;;27.07;14.53;;;;;;;;;;5069289;28;20018;-79
2023/04/18 05:21:57;;;;;;;22.50;14.03;;;;;;;;;;5068001;28;20029;-79
2023/04/18 05:24:23;;;;;;;24.23;13.50;;;;;;;;;;5068492;28;20036;-80
2023/04/18 05:26:54;;;;;;;21.80;13.50;;;;;;;;;;5056391;28;20014;-78
2023/04/18 05:29:20;;;;;;;20.97;13.23;;;;;;;;;;5051918;28;20021;-78
2023/04/18 05:31:46;;;;;;;20.73;13.70;;;;;;;;;;5047608;28;20037;-79
2023/04/18 05:34:14;;;;;;;22.07;13.80;;;;;;;;;;5051780;28;20021;-78
2023/04/18 05:36:40;;;;;;;23.80;13.60;;;;;;;;;;5052724;28;20017;-78
2023/04/18 05:39:06;;;;;;;17.47;12.80;;;;;;;;;;5069544;28;20037;-78
2023/04/18 05:41:33;;;;;;;26.60;13.83;;;;;;;;;;5049196;28;20054;-78
2023/04/18 05:43:59;;;;;;;17.37;12.17;;;;;;;;;;5069014;28;20088;-79
2023/04/18 05:46:25;;;;;;;24.97;13.97;;;;;;;;;;5067903;28;20139;-80
2023/04/18 05:48:53;;;;;;;21.13;13.23;;;;;;;;;;5068363;28;20108;-78
2023/04/18 05:51:19;;;;;;;18.50;13.43;;;;;;;;;;5048251;28;20231;-78
2023/04/18 05:53:45;;;;;;;20.87;13.20;;;;;;;;;;5068441;28;20052;-78
2023/04/18 05:56:11;;;;;;;20.57;13.27;;;;;;;;;;5049420;28;20232;-78
2023/04/18 05:58:40;;;;;;;20.67;13.57;;;;;;;;;;5067216;28;20060;-78
2023/04/18 06:01:06;;;;;;;23.57;13.87;;;;;;;;;;5050233;28;20106;-78
2023/04/18 06:03:32;;;;;;;22.67;12.80;;;;;;;;;;5069341;28;20025;-78
2023/04/18 06:05:58;;;;;;;17.00;12.77;;;;;;;;;;5049384;28;20028;-78
2023/04/18 06:08:25;;;;;;;19.83;12.80;;;;;;;;;;5051486;28;20092;-79
2023/04/18 06:10:51;;;;;;;30.27;15.87;;;;;;;;;;5046170;28;20021;-80
2023/04/18 06:13:17;;;;;;;22.13;12.90;;;;;;;;;;5047447;28;20096;-78
2023/04/18 06:15:49;;;;;;;24.17;14.37;;;;;;;;;;5047034;28;20021;-78
2023/04/18 06:18:18;;;;;;;21.85;14.02;;;;;;;;;;5049231;28;20052;-78
2023/04/18 06:20:44;;;;;;;21.40;13.33;;;;;;;;;;5049228;28;20041;-78
2023/04/18 06:23:10;;;;;;;20.20;14.20;;;;;;;;;;5066088;28;20084;-79
2023/04/18 06:25:36;;;;;;;23.23;14.33;;;;;;;;;;5068063;28;20029;-78
2023/04/18 06:28:02;;;;;;;21.87;14.30;;;;;;;;;;5045448;28;20143;-79
2023/04/18 06:30:28;;;;;;;22.67;17.50;;;;;;;;;;5069150;28;20032;-79
2023/04/18 06:32:54;;;;;;;16.43;12.20;;;;;;;;;;5052658;28;20063;-78
2023/04/18 06:35:20;;;;;;;20.40;12.70;;;;;;;;;;5045649;28;20083;-79
2023/04/18 06:37:47;;;;;;;18.63;12.40;;;;;;;;;;5067006;28;20029;-79
2023/04/18 06:40:13;;;;;;;57.70;36.27;;;;;;;;;;5067139;28;20016;-79
2023/04/18 06:42:42;;;;;;;55.93;37.20;;;;;;;;;;5049201;28;20041;-78
2023/04/18 06:45:10;;;;;;;38.93;27.00;;;;;;;;;;5069588;28;20040;-78
2023/04/18 06:47:37;;;;;;;26.90;18.97;;;;;;;;;;5070330;28;20289;-78
2023/04/18 06:50:09;;;;;;;18.33;11.37;;;;;;;;;;5053757;28;20032;-79
2023/04/18 06:52:39;;;;;;;24.92;17.02;;;;;;;;;;5054692;28;20055;-78
2023/04/18 06:55:05;;;;;;;21.30;12.90;;;;;;;;;;5049370;28;20032;-78
2023/04/18 06:57:35;;;;;;;41.30;24.47;;;;;;;;;;5049966;28;20086;-81
2023/04/18 07:00:01;;;;;;;37.33;24.60;;;;;;;;;;5055267;28;20029;-79
2023/04/18 07:02:30;;;;;;;23.27;17.43;;;;;;;;;;5049585;28;20021;-79
2023/04/18 07:04:56;;;;;;;28.03;18.33;;;;;;;;;;5072684;28;20029;-78
2023/04/18 07:07:22;;;;;;;15.10;9.77;;;;;;;;;;5071883;28;20025;-78
2023/04/18 07:09:49;;;;;;;14.40;8.73;;;;;;;;;;5070636;28;20039;-78
2023/04/18 07:12:15;;;;;;;17.73;9.80;;;;;;;;;;5053334;28;20040;-80
2023/04/18 07:14:41;;;;;;;16.00;10.50;;;;;;;;;;5072227;28;20052;-80
2023/04/18 07:17:07;;;;;;;14.73;9.80;;;;;;;;;;5050412;28;20070;-79
2023/04/18 07:19:33;;;;;;;12.27;9.07;;;;;;;;;;5054059;28;20013;-79
2023/04/18 07:22:00;;;;;;;13.00;8.90;;;;;;;;;;5050061;28;20037;-77
2023/04/18 07:24:28;;;;;;;14.17;8.73;;;;;;;;;;5047323;28;20025;-81
2023/04/18 07:26:54;;;;;;;15.93;9.20;;;;;;;;;;5055733;28;20479;-80
2023/04/18 07:29:20;;;;;;;23.03;13.87;;;;;;;;;;5070201;28;20013;-78
2023/04/18 07:31:46;;;;;;;13.70;8.30;;;;;;;;;;5052574;28;20049;-79
2023/04/18 07:34:13;;;;;;;11.50;7.87;;;;;;;;;;5051320;28;20055;-79
2023/04/18 07:36:39;;;;;;;15.60;8.67;;;;;;;;;;5071898;28;20036;-80
2023/04/18 07:39:08;;;;;;;15.03;8.87;;;;;;;;;;5058863;28;20040;-78
2023/04/18 07:41:34;;;;;;;23.07;14.70;;;;;;;;;;5071159;28;20056;-78
2023/04/18 07:44:01;;;;;;;13.13;8.80;;;;;;;;;;5052084;28;20040;-79
2023/04/18 07:46:27;;;;;;;12.33;8.13;;;;;;;;;;5072331;28;20032;-79
2023/04/18 07:48:53;;;;;;;16.10;11.57;;;;;;;;;;5070408;28;20039;-78
2023/04/18 07:51:20;;;;;;;14.87;10.07;;;;;;;;;;5071886;28;20032;-79
2023/04/18 07:53:46;;;;;;;12.77;9.50;;;;;;;;;;5049842;28;20029;-78
2023/04/18 07:56:13;;;;;;;11.03;7.73;;;;;;;;;;5072845;28;20180;-78
2023/04/18 07:58:39;;;;;;;10.40;7.23;;;;;;;;;;5070417;28;20303;-78
2023/04/18 08:01:06;;;;;;;10.23;7.30;;;;;;;;;;5053077;28;20028;-78
2023/04/18 08:03:35;;;;;;;9.30;6.57;;;;;;;;;;5049850;28;20025;-81
2023/04/18 08:06:02;;;;;;;12.27;7.03;;;;;;;;;;5049578;28;20067;-78
2023/04/18 08:08:28;;;;;;;12.13;7.27;;;;;;;;;;5068916;28;20105;-79
2023/04/18 08:10:54;;;;;;;8.93;6.93;;;;;;;;;;5051248;28;20255;-78
2023/04/18 08:13:20;;;;;;;10.67;7.47;;;;;;;;;;5051514;28;20104;-78
2023/04/18 08:15:47;;;;;;;11.10;7.70;;;;;;;;;;5048211;28;20056;-80
2023/04/18 08:18:13;;;;;;;13.53;9.83;;;;;;;;;;5041986;28;20025;-79
2023/04/18 08:20:39;;;;;;;10.33;6.80;;;;;;;;;;5050985;28;20025;-81
2023/04/18 08:23:06;;;;;;;8.80;6.50;;;;;;;;;;5052168;28;20029;-79
2023/04/18 08:25:32;;;;;;;11.17;7.77;;;;;;;;;;5068450;28;20030;-78
2023/04/18 08:28:01;;;;;;;12.63;6.60;;;;;;;;;;5053580;28;20037;-81
2023/04/18 08:30:27;;;;;;;10.87;6.63;;;;;;;;;;5071267;28;20040;-79
2023/04/18 08:32:53;;;;;;;7.87;5.97;;;;;;;;;;5049549;28;20040;-78
2023/04/18 08:35:19;;;;;;;8.50;6.60;;;;;;;;;;5049878;28;20041;-78
2023/04/18 08:37:45;;;;;;;9.07;6.67;;;;;;;;;;5047639;28;20096;-80
2023/04/18 08:40:11;;;;;;;9.07;6.00;;;;;;;;;;5047985;28;20017;-78
2023/04/18 08:42:37;;;;;;;9.87;6.87;;;;;;;;;;5070779;28;20021;-78
2023/04/18 08:45:05;;;;;;;10.57;7.10;;;;;;;;;;5048871;28;20026;-77
2023/04/18 08:47:31;;;;;;;11.20;6.63;;;;;;;;;;5071141;28;20048;-77
2023/04/18 08:49:57;;;;;;;9.30;6.57;;;;;;;;;;5053836;28;20021;-78
2023/04/18 08:52:26;;;;;;;10.00;6.33;;;;;;;;;;5071894;28;20035;-78
2023/04/18 08:54:52;;;;;;;11.37;6.67;;;;;;;;;;5053959;28;20020;-77
2023/04/18 08:57:36;;;;;;;8.07;6.23;;;;;;;;;;5047136;28;20063;-78
2023/04/18 09:00:09;;;;;;;8.70;6.27;;;;;;;;;;5070647;28;20048;-81
2023/04/18 09:02:41;;;;;;;;;;;;;;;;;;5051296;28;20237;-80
2023/04/18 09:05:15;;;;;;;8.27;5.90;;;;;;;;;;5071820;28;20007;-77
2023/04/18 09:07:41;;;;;;;9.03;6.57;;;;;;;;;;5050946;28;20029;-80
2023/04/18 09:10:07;;;;;;;8.97;5.80;;;;;;;;;;5071096;28;20025;-78
2023/04/18 09:12:41;;;;;;;10.13;6.20;;;;;;;;;;5054253;28;20036;-77
2023/04/18 09:15:12;;;;;;;8.10;5.47;;;;;;;;;;5071298;28;20032;-79
2023/04/18 09:17:44;;;;;;;8.65;5.63;;;;;;;;;;5052198;28;20037;-78
2023/04/18 09:20:10;;;;;;;10.77;7.80;;;;;;;;;;5069884;28;20056;-77
2023/04/18 09:22:47;;;;;;;11.37;7.17;;;;;;;;;;5052500;28;20040;-76
2023/04/18 09:25:34;;;;;;;8.67;6.70;;;;;;;;;;5069020;28;20093;-78
2023/04/18 09:28:22;;;;;;;9.77;6.90;;;;;;;;;;5068658;28;20219;-79
2023/04/18 09:30:50;;;;;;;9.50;6.30;;;;;;;;;;5052212;28;20032;-76
2023/04/18 09:33:16;;;;;;;10.50;6.90;;;;;;;;;;5071716;28;20049;-80
2023/04/18 09:35:43;;;;;;;11.40;7.90;;;;;;;;;;5071069;28;20017;-78
2023/04/18 09:38:09;;;;;;;13.60;7.57;;;;;;;;;;5049945;28;20025;-78
2023/04/18 09:40:35;;;;;;;13.17;7.97;;;;;;;;;;5070092;28;20033;-78
2023/04/18 09:43:16;;;;;;;12.70;8.37;;;;;;;;;;5070195;28;20025;-78
2023/04/18 09:45:43;;;;;;;13.70;7.60;;;;;;;;;;5052958;28;20021;-78
2023/04/18 09:48:09;;;;;;;8.43;6.57;;;;;;;;;;5050543;28;20025;-76
2023/04/18 09:50:36;;;;;;;9.37;6.00;;;;;;;;;;5052374;28;20021;-77
2023/04/18 09:53:02;;;;;;;7.57;5.97;;;;;;;;;;5071164;28;20021;-76
2023/04/18 09:55:30;;;;;;;9.00;5.47;;;;;;;;;;5071161;28;20027;-76
2023/04/18 09:57:59;;;;;;;7.80;5.60;;;;;;;;;;5052463;28;20120;-76
2023/04/18 10:00:26;;;;;;;9.60;6.37;;;;;;;;;;5046213;28;20017;-78
2023/04/18 10:02:57;;;;;;;10.33;6.73;;;;;;;;;;5070443;28;20013;-78
2023/04/18 10:05:26;;;;;;;8.43;5.20;;;;;;;;;;5049108;28;20028;-77
2023/04/18 10:07:53;;;;;;;11.03;5.97;;;;;;;;;;5049696;28;20031;-77
2023/04/18 10:10:19;;;;;;;6.87;4.90;;;;;;;;;;5070068;28;20131;-78
2023/04/18 10:12:46;;;;;;;9.13;5.67;;;;;;;;;;5049719;28;20013;-77
2023/04/18 10:15:14;;;;;;;12.63;6.00;;;;;;;;;;5053609;28;20028;-77
2023/04/18 10:17:45;;;;;;;8.33;6.00;;;;;;;;;;5051881;28;20035;-77
2023/04/18 10:20:21;;;;;;;7.80;6.03;;;;;;;;;;5069249;28;20025;-77
2023/04/18 10:22:48;;;;;;;7.80;5.60;;;;;;;;;;5047036;28;20035;-77
2023/04/18 10:25:34;;;;;;;8.40;5.30;;;;;;;;;;5052640;28;20339;-78
2023/04/18 10:28:01;;;;;;;8.80;5.13;;;;;;;;;;5069718;28;20161;-76
2023/04/18 10:30:39;;;;;;;7.40;5.00;;;;;;;;;;5069134;28;20029;-79
2023/04/18 10:33:22;;;;;;;7.27;5.87;;;;;;;;;;5051081;28;20037;-77
2023/04/18 10:36:12;;;;;;;11.00;7.40;;;;;;;;;;5050298;28;20018;-77
2023/04/18 10:38:44;;;;;;;9.53;5.63;;;;;;;;;;5052309;28;20032;-77
2023/04/18 10:41:29;;;;;;;8.93;5.57;;;;;;;;;;5052498;28;20101;-77
2023/04/18 10:44:16;;;;;;;8.57;5.37;;;;;;;;;;5067441;28;20056;-78
2023/04/18 10:46:51;;;;;;;6.70;5.27;;;;;;;;;;5069492;28;20108;-78
2023/04/18 10:49:20;;;;;;;6.70;5.27;;;;;;;;;;5069571;28;20017;-77
2023/04/18 10:51:48;;;;;;;8.33;5.80;;;;;;;;;;5068013;28;20243;-78
2023/04/18 10:54:37;;;;;;;6.63;4.90;;;;;;;;;;5068475;28;20029;-77
2023/04/18 10:57:04;;;;;;;7.47;5.37;;;;;;;;;;5051516;28;20052;-79
2023/04/18 10:59:33;;;;;;;7.50;5.10;;;;;;;;;;5052344;28;20055;-79
2023/04/18 11:02:08;;;;;;;6.40;5.30;;;;;;;;;;5045698;28;20017;-79
2023/04/18 11:04:34;;;;;;;7.40;5.63;;;;;;;;;;5050988;28;20025;-77
2023/04/18 11:07:01;;;;;;;6.33;5.40;;;;;;;;;;5048212;28;20020;-77
2023/04/18 11:12:03;;;;;;;7.47;5.07;;;;;;;;;;5275212;22;20167;-76
2023/04/18 11:14:40;;;;;;;6.15;4.55;;;;;;;;;;5077292;28;20024;-77
2023/04/18 11:17:22;;;;;;;8.35;5.82;;;;;;;;;;5078040;28;20063;-77
2023/04/18 11:19:49;;;;;;;7.63;5.25;;;;;;;;;;5061350;28;20035;-77
2023/04/18 11:22:15;;;;;;;8.05;5.47;;;;;;;;;;5062869;28;20036;-77
2023/04/18 11:24:44;;;;;;;8.75;6.15;;;;;;;;;;5070656;28;20021;-76
2023/04/18 11:27:10;;;;;;;9.80;6.43;;;;;;;;;;5066029;28;20033;-76
2023/04/18 11:29:36;;;;;;;11.07;6.03;;;;;;;;;;5078704;28;20047;-77
2023/04/18 11:32:08;;;;;;;7.38;6.13;;;;;;;;;;5064195;28;20040;-76
2023/04/18 11:34:34;;;;;;;9.05;5.63;;;;;;;;;;5075243;28;20028;-78
2023/04/18 11:37:01;;;;;;;8.00;5.25;;;;;;;;;;5080296;28;20040;-77
2023/04/18 11:39:27;;;;;;;7.97;5.80;;;;;;;;;;5080566;28;20025;-77
2023/04/18 11:41:55;;;;;;;8.07;5.40;;;;;;;;;;5067148;28;20040;-77
2023/04/18 11:44:25;;;;;;;7.53;5.70;;;;;;;;;;5081094;28;20033;-79
2023/04/18 11:46:52;;;;;;;10.98;5.28;;;;;;;;;;5066813;28;20135;-77
2023/04/18 11:49:44;;;;;;;8.45;6.25;;;;;;;;;;5065911;28;20029;-77
2023/04/18 11:52:12;;;;;;;7.65;5.95;;;;;;;;;;5067059;28;20037;-78
2023/04/18 11:54:38;;;;;;;8.80;5.72;;;;;;;;;;5068088;28;20021;-77
2023/04/18 11:57:17;;;;;;;7.18;5.22;;;;;;;;;;5080503;28;20049;-78
2023/04/18 11:59:53;;;;;;;8.75;5.88;;;;;;;;;;5064716;28;20039;-76
2023/04/18 12:02:41;;;;;;;9.55;6.10;;;;;;;;;;5080652;28;20033;-77
2023/04/18 12:05:09;;;;;;;8.63;6.30;;;;;;;;;;5071760;28;20029;-77
2023/04/18 12:07:39;;;;;;;7.78;6.45;;;;;;;;;;5064727;28;20025;-78
2023/04/18 12:10:06;;;;;;;8.20;6.45;;;;;;;;;;5065822;28;20093;-77
2023/04/18 12:12:32;;;;;;;10.73;6.55;;;;;;;;;;5090221;22;20033;-77
2023/04/18 12:15:08;;;;;;;9.07;5.72;;;;;;;;;;5070385;28;20337;-78
2023/04/18 12:17:36;;;;;;;10.70;6.20;;;;;;;;;;5054767;28;20136;-78
2023/04/18 12:20:08;;;;;;;6.97;5.30;;;;;;;;;;5053671;28;20081;-78
2023/04/18 12:22:39;;;;;;;7.72;5.65;;;;;;;;;;5054757;28;20303;-76
2023/04/18 12:25:21;;;;;;;8.57;6.05;;;;;;;;;;5050146;28;20048;-77
2023/04/18 12:27:57;;;;;;;6.40;5.40;;;;;;;;;;5053904;28;20025;-77
2023/04/18 12:30:29;;;;;;;8.43;5.70;;;;;;;;;;5071057;28;20116;-79
2023/04/18 12:32:56;;;;;;;7.47;5.43;;;;;;;;;;5052856;28;20051;-79
2023/04/18 12:35:22;;;;;;;6.18;5.10;;;;;;;;;;5051096;28;20029;-76
2023/04/18 12:37:52;;;;;;;6.40;5.13;;;;;;;;;;5050087;28;20033;-77
2023/04/18 12:40:19;;;;;;;7.63;5.40;;;;;;;;;;5048660;28;20040;-76
2023/04/18 12:42:46;;;;;;;6.35;5.20;;;;;;;;;;5071209;28;20037;-79
2023/04/18 12:45:12;;;;;;;7.28;5.60;;;;;;;;;;5051356;28;20025;-79
2023/04/18 12:47:39;;;;;;;6.40;5.40;;;;;;;;;;5057875;28;20105;-77
2023/04/18 12:50:08;;;;;;;6.40;5.15;;;;;;;;;;5053391;28;20017;-76
2023/04/18 12:52:37;;;;;;;6.65;5.28;;;;;;;;;;5047927;28;20029;-77
2023/04/18 12:55:06;;;;;;;6.25;5.10;;;;;;;;;;5069498;28;20029;-77
2023/04/18 12:57:35;;;;;;;9.52;5.57;;;;;;;;;;5048881;28;20071;-77
2023/04/18 13:00:04;;;;;;;5.70;5.10;;;;;;;;;;5069368;28;20042;-76
2023/04/18 13:02:33;;;;;;;6.22;4.80;;;;;;;;;;5048007;28;20033;-77
2023/04/18 13:04:59;;;;;;;8.93;4.95;;;;;;;;;;5046944;28;20041;-77
2023/04/18 13:07:25;;;;;;;6.22;4.95;;;;;;;;;;5069391;28;20025;-79
2023/04/18 13:12:24;;;;;;;6.20;5.30;;;;;;;;;;5077000;28;20035;-77
2023/04/18 13:14:50;;;;;;;8.23;5.32;;;;;;;;;;5079962;28;20170;-78
2023/04/18 13:17:16;;;;;;;7.97;5.32;;;;;;;;;;5079675;28;20033;-76
2023/04/18 13:19:42;;;;;;;5.78;4.60;;;;;;;;;;5070349;28;20029;-79
2023/04/18 13:22:08;;;;;;;6.85;5.15;;;;;;;;;;5064970;28;20032;-77
2023/04/18 13:24:42;;;;;;;5.55;4.85;;;;;;;;;;5078923;28;20055;-79
2023/04/18 13:27:11;;;;;;;6.32;4.55;;;;;;;;;;5062421;28;20535;-77
2023/04/18 13:29:38;;;;;;;5.43;4.60;;;;;;;;;;5078924;28;20039;-77
2023/04/18 13:32:04;;;;;;;5.65;4.32;;;;;;;;;;5071399;28;20029;-78
2023/04/18 13:34:30;;;;;;;6.07;5.05;;;;;;;;;;5070155;28;20017;-76
2023/04/18 13:36:57;;;;;;;5.68;4.72;;;;;;;;;;5063943;28;20028;-77
2023/04/18 13:39:23;;;;;;;8.40;5.25;;;;;;;;;;5064090;28;20013;-77
2023/04/18 13:41:49;;;;;;;7.38;5.30;;;;;;;;;;5062822;28;20029;-76
2023/04/18 13:44:15;;;;;;;5.95;4.80;;;;;;;;;;5080296;28;20013;-77
2023/04/18 13:46:41;;;;;;;6.68;5.00;;;;;;;;;;5082700;28;20024;-77
2023/04/18 13:49:13;;;;;;;7.38;4.82;;;;;;;;;;5078648;28;20024;-78
2023/04/18 13:51:39;;;;;;;4.68;3.97;;;;;;;;;;5079839;28;20036;-77
2023/04/18 13:54:05;;;;;;;6.18;4.70;;;;;;;;;;5062757;28;20033;-77
2023/04/18 13:56:31;;;;;;;8.48;5.00;;;;;;;;;;5077503;28;20032;-77
2023/04/18 13:58:57;;;;;;;7.65;5.00;;;;;;;;;;5074042;28;20079;-78
2023/04/18 14:01:23;;;;;;;7.70;6.50;;;;;;;;;;5065780;28;20016;-78
2023/04/18 14:03:49;;;;;;;9.20;6.65;;;;;;;;;;5063967;28;20048;-78
2023/04/18 14:06:15;;;;;;;7.53;6.47;;;;;;;;;;5078653;28;20025;-76
2023/04/18 14:08:41;;;;;;;7.00;5.50;;;;;;;;;;5077362;28;20049;-77
2023/04/18 14:11:07;;;;;;;6.40;5.30;;;;;;;;;;5077833;28;20025;-77
2023/04/18 14:13:33;;;;;;;7.63;5.88;;;;;;;;;;5078429;28;21118;-77
2023/04/18 14:16:00;;;;;;;7.80;6.30;;;;;;;;;;5063002;28;20020;-77
2023/04/18 14:18:27;;;;;;;9.88;6.47;;;;;;;;;;5072052;28;20033;-78
2023/04/18 14:20:53;;;;;;;9.80;5.75;;;;;;;;;;5067430;28;20013;-78
2023/04/18 14:23:22;;;;;;;7.65;5.68;;;;;;;;;;5079284;28;20015;-78
2023/04/18 14:25:48;;;;;;;7.15;5.25;;;;;;;;;;5063261;28;20316;-77
2023/04/18 14:28:16;;;;;;;7.68;5.55;;;;;;;;;;5064349;28;20022;-77
2023/04/18 14:30:42;;;;;;;6.65;5.00;;;;;;;;;;5073053;28;20020;-78
2023/04/18 14:33:08;;;;;;;7.07;5.00;;;;;;;;;;5082871;28;20024;-77
2023/04/18 14:35:34;;;;;;;7.18;5.80;;;;;;;;;;5082050;28;20052;-78
2023/04/18 14:38:01;;;;;;;7.35;5.75;;;;;;;;;;5066482;28;20029;-77